LESOLEMH

Guest
Details From LESO - San_Sebastian
To LEMH - Menorca
Flight Number -
Tags decoded
Created
Modified
Stats Distance 342 nm / 633 km
Max Altitude 0 ft / 0 m
Waypoints 2
Social Downloads 0
Likes 0
Share VATSIM

Download

Looking for another format? Having issues loading an existing format? Contact us
Advertisement - Login to hide

Notes

Requested: LESO LEMH

Route

LESO LEMH

ID Type Via Altitude Latitude Longitude Leg Dist Tot Dist Heading (true) Name
O LESO APT - 0 ft / 0 m 43.35652˚ -1.79061˚ - 0 nm - San_Sebastian
O LEMH APT - 0 ft / 0 m 39.86222˚ 4.21976˚ 341 nm 341 nm 126° / 130° Menorca

Altitude Profile

Advertisement - Login to hide

Weather


0- 5 10 15 20 25 30 35+ Temperature / ° C

Clouds and Precipitation
Forecast for 2018-05-27 12:00 UTC. Updated 2 hours ago

Ground ~20,000 ft ~40,000 ft Winds

LESO

Details ICAO LESO (EAS)
Name San_Sebastian
Region Spain
Timezone Europe/Madrid (UTC+2.0)
Stats Elevation 14 ft / 4 m (AMSL)
Location 43.356520° -1.790611°
Runways 1
Magnetic Variation 0.242° W

METAR

LESO 271230Z 03004KT 330V060 9999 BKN014 OVC019 18/15 Q1016

Decode

TAF

TAF TAF LESO 271100Z 2712/2812 36008KT 8000 SCT010 BKN020 TX22/2714Z TN16/2806Z TEMPO 2712/2812 BKN010 PROB40 TEMPO 2712/2812 RA SHRA BKN010 SCT025TCU PROB40 TEMPO 2718/2808 3000 -RA BR BKN010

Decode

Departure Runways

ID Width Length Bearing (true) Bearing (mag) Surface Threshold Offset Overrun Length
04 148 ft / 45 m 5,762 ft / 1,756 m 38.68° 38.92° Asphalt 0 ft / 0 m 0 ft / 0 m
22 148 ft / 45 m 5,762 ft / 1,756 m 218.69° 218.93° Asphalt 0 ft / 0 m 0 ft / 0 m

LEMH

Details ICAO LEMH (MAH)
Name Menorca
Region Spain
Timezone Europe/Madrid (UTC+2.0)
Stats Elevation 298 ft / 91 m (AMSL)
Location 39.862221° 4.219762°
Runways 2
Magnetic Variation 1.374° E

METAR

LEMH 271230Z 24011KT 200V280 9999 BKN006 BKN015 22/19 Q1011

Decode

TAF

TAF AMD LEMH 271229Z 2712/2809 22010KT 9999 FEW040 TX24/2712Z TN15/2806Z TEMPO 2712/2716 BKN006 BKN015 PROB30 TEMPO 2721/2723 22021G31KT PROB30 TEMPO 2719/2806 3000 BR BKN010 PROB30 TEMPO 2806/2809 3000 TSRA FEW030CB

Decode

Destination Runways

ID Width Length Bearing (true) Bearing (mag) Surface Threshold Offset Overrun Length
01L 148 ft / 45 m 7,723 ft / 2,354 m 8.97° 7.60° Asphalt 0 ft / 0 m 164 ft / 50 m
01R 148 ft / 45 m 6,903 ft / 2,104 m 8.97° 7.60° Asphalt 0 ft / 0 m 0 ft / 0 m
19L 148 ft / 45 m 6,903 ft / 2,104 m 188.97° 187.60° Asphalt 0 ft / 0 m 0 ft / 0 m
19R 148 ft / 45 m 7,723 ft / 2,354 m 188.97° 187.60° Asphalt 0 ft / 0 m 164 ft / 50 m

Approach Navaids

Runway Type Ident Frequency Range Bearing (true) Bearing (mag) Slope Elevation
01L Localiser IMH 110.30 MHz 18 nm / 33 km 8.97° 7.59° - 298 ft / 91 m (AMSL)
01L Glidescope IMH 110.30 MHz 10 nm / 19 km 8.97° 7.59° 3.00° 298 ft / 91 m (AMSL)
01L DME IMH 110.30 MHz 18 nm / 33 km - - - 298 ft / 91 m (AMSL)

Popular Alternatives